KGRR

Gerald R Ford International Airport

Grand Rapids, Michigan, USA
METAR KGRR 231453Z 00000KT 10SM BKN250 19/13 A3021 RMK AO2 SLP228 T01890133 51009
Observed Flight Rules
May-23 @ 14:53 UTC (7 minutes ago) Visual Flight Rules
Visibility Clouds
10 miles
  • Broken at 25,000' AGL
Temperatures Readings
Current 19°C / 66°F
Dewpoint 13°C / 55°F
Humidity 68%
Altimeter 30.21" Hg
Pressure 1022.8 hPa
Elevation 237
METAR KGRR 231453Z 00000KT 10SM BKN250 19/13 A3021 RMK AO2 SLP228 T01890133 51009
Observed Flight Rules
May-23 @ 14:53 UTC
(7 minutes ago)
VFR
Clouds
  • Broken at 25,000' AGL
Temperature Dewpoint
19°C / 66°F 13°C / 55°F
Humidity Altimeter Pressure
68% 30.21" Hg 1022.8 hPa